sensor_id;sensor_type;location;lat;lon;timestamp;P1;durP1;ratioP1;P2;durP2;ratioP2
7338;SDS011;33747;49.524;8.390;2023-02-02T00:00:33;14.77;;;3.08;;
7338;SDS011;33747;49.524;8.390;2023-02-02T00:02:59;13.00;;;2.85;;
7338;SDS011;33747;49.524;8.390;2023-02-02T00:05:24;15.18;;;3.17;;
7338;SDS011;33747;49.524;8.390;2023-02-02T00:07:49;12.02;;;2.90;;
7338;SDS011;33747;49.524;8.390;2023-02-02T00:10:15;25.55;;;3.67;;
7338;SDS011;33747;49.524;8.390;2023-02-02T00:12:41;17.02;;;3.55;;
7338;SDS011;33747;49.524;8.390;2023-02-02T00:15:06;13.80;;;3.17;;
7338;SDS011;33747;49.524;8.390;2023-02-02T00:17:32;19.17;;;3.92;;
7338;SDS011;33747;49.524;8.390;2023-02-02T00:19:57;13.88;;;2.85;;
7338;SDS011;33747;49.524;8.390;2023-02-02T00:22:23;15.30;;;3.15;;
7338;SDS011;33747;49.524;8.390;2023-02-02T00:24:48;20.83;;;3.53;;
7338;SDS011;33747;49.524;8.390;2023-02-02T00:27:13;18.17;;;3.63;;
7338;SDS011;33747;49.524;8.390;2023-02-02T00:29:39;10.98;;;2.50;;
7338;SDS011;33747;49.524;8.390;2023-02-02T00:32:04;13.52;;;3.30;;
7338;SDS011;33747;49.524;8.390;2023-02-02T00:34:30;13.30;;;2.70;;
7338;SDS011;33747;49.524;8.390;2023-02-02T00:36:55;16.55;;;3.55;;
7338;SDS011;33747;49.524;8.390;2023-02-02T00:39:21;14.18;;;3.10;;
7338;SDS011;33747;49.524;8.390;2023-02-02T00:41:49;11.52;;;3.33;;
7338;SDS011;33747;49.524;8.390;2023-02-02T00:44:15;12.68;;;3.17;;
7338;SDS011;33747;49.524;8.390;2023-02-02T00:46:59;17.85;;;3.13;;
7338;SDS011;33747;49.524;8.390;2023-02-02T00:49:24;17.02;;;3.30;;
7338;SDS011;33747;49.524;8.390;2023-02-02T00:51:50;11.57;;;2.92;;
7338;SDS011;33747;49.524;8.390;2023-02-02T00:54:15;17.35;;;3.40;;
7338;SDS011;33747;49.524;8.390;2023-02-02T00:56:40;15.32;;;3.20;;
7338;SDS011;33747;49.524;8.390;2023-02-02T00:59:06;12.50;;;3.28;;
7338;SDS011;33747;49.524;8.390;2023-02-02T01:01:32;23.65;;;3.20;;
7338;SDS011;33747;49.524;8.390;2023-02-02T01:03:57;16.98;;;2.92;;
7338;SDS011;33747;49.524;8.390;2023-02-02T01:06:23;19.98;;;3.60;;
7338;SDS011;33747;49.524;8.390;2023-02-02T01:08:48;18.02;;;3.08;;
7338;SDS011;33747;49.524;8.390;2023-02-02T01:11:14;12.48;;;2.65;;
7338;SDS011;33747;49.524;8.390;2023-02-02T01:13:40;18.63;;;3.47;;
7338;SDS011;33747;49.524;8.390;2023-02-02T01:16:05;12.60;;;3.15;;
7338;SDS011;33747;49.524;8.390;2023-02-02T01:18:31;10.50;;;2.55;;
7338;SDS011;33747;49.524;8.390;2023-02-02T01:21:03;19.05;;;3.55;;
7338;SDS011;33747;49.524;8.390;2023-02-02T01:23:31;12.68;;;3.10;;
7338;SDS011;33747;49.524;8.390;2023-02-02T01:25:59;16.40;;;3.65;;
7338;SDS011;33747;49.524;8.390;2023-02-02T01:28:26;22.38;;;3.60;;
7338;SDS011;33747;49.524;8.390;2023-02-02T01:30:52;16.30;;;3.45;;
7338;SDS011;33747;49.524;8.390;2023-02-02T01:33:18;20.08;;;3.20;;
7338;SDS011;33747;49.524;8.390;2023-02-02T01:35:48;19.42;;;3.83;;
7338;SDS011;33747;49.524;8.390;2023-02-02T01:38:19;16.27;;;3.05;;
7338;SDS011;33747;49.524;8.390;2023-02-02T01:40:46;16.05;;;4.25;;
7338;SDS011;33747;49.524;8.390;2023-02-02T01:43:23;16.27;;;3.67;;
7338;SDS011;33747;49.524;8.390;2023-02-02T01:45:51;12.63;;;3.13;;
7338;SDS011;33747;49.524;8.390;2023-02-02T01:48:17;19.40;;;3.45;;
7338;SDS011;33747;49.524;8.390;2023-02-02T01:50:44;18.52;;;3.03;;
7338;SDS011;33747;49.524;8.390;2023-02-02T01:53:11;17.17;;;3.20;;
7338;SDS011;33747;49.524;8.390;2023-02-02T01:55:37;19.80;;;3.72;;
7338;SDS011;33747;49.524;8.390;2023-02-02T01:58:05;13.68;;;2.60;;
7338;SDS011;33747;49.524;8.390;2023-02-02T02:00:32;18.02;;;3.30;;
7338;SDS011;33747;49.524;8.390;2023-02-02T02:02:59;16.23;;;2.45;;
7338;SDS011;33747;49.524;8.390;2023-02-02T02:11:18;16.95;;;3.25;;
7338;SDS011;33747;49.524;8.390;2023-02-02T02:13:44;14.18;;;3.47;;
7338;SDS011;33747;49.524;8.390;2023-02-02T02:16:37;17.70;;;3.33;;
7338;SDS011;33747;49.524;8.390;2023-02-02T02:22:23;20.45;;;3.30;;
7338;SDS011;33747;49.524;8.390;2023-02-02T02:25:18;12.18;;;3.08;;
7338;SDS011;33747;49.524;8.390;2023-02-02T02:28:33;19.20;;;3.42;;
7338;SDS011;33747;49.524;8.390;2023-02-02T02:33:50;17.25;;;2.83;;
7338;SDS011;33747;49.524;8.390;2023-02-02T02:36:39;17.95;;;3.35;;
7338;SDS011;33747;49.524;8.390;2023-02-02T02:41:49;14.45;;;4.22;;
7338;SDS011;33747;49.524;8.390;2023-02-02T02:44:17;19.33;;;3.22;;
7338;SDS011;33747;49.524;8.390;2023-02-02T02:46:43;14.43;;;3.22;;
7338;SDS011;33747;49.524;8.390;2023-02-02T02:49:10;20.98;;;3.63;;
7338;SDS011;33747;49.524;8.390;2023-02-02T02:51:52;12.23;;;2.70;;
7338;SDS011;33747;49.524;8.390;2023-02-02T03:10:52;16.67;;;3.05;;
7338;SDS011;33747;49.524;8.390;2023-02-02T03:13:18;9.95;;;2.83;;
7338;SDS011;33747;49.524;8.390;2023-02-02T03:15:43;19.58;;;3.08;;
7338;SDS011;33747;49.524;8.390;2023-02-02T03:18:13;14.70;;;2.90;;
7338;SDS011;33747;49.524;8.390;2023-02-02T03:20:40;16.65;;;3.45;;
7338;SDS011;33747;49.524;8.390;2023-02-02T03:23:07;20.27;;;2.83;;
7338;SDS011;33747;49.524;8.390;2023-02-02T03:25:32;19.23;;;3.60;;
7338;SDS011;33747;49.524;8.390;2023-02-02T03:27:58;12.63;;;2.53;;
7338;SDS011;33747;49.524;8.390;2023-02-02T03:30:23;17.42;;;3.88;;
7338;SDS011;33747;49.524;8.390;2023-02-02T03:32:49;15.73;;;3.22;;
7338;SDS011;33747;49.524;8.390;2023-02-02T03:35:16;17.33;;;3.47;;
7338;SDS011;33747;49.524;8.390;2023-02-02T03:37:41;15.75;;;2.47;;
7338;SDS011;33747;49.524;8.390;2023-02-02T03:40:06;20.65;;;3.92;;
7338;SDS011;33747;49.524;8.390;2023-02-02T03:42:32;17.85;;;3.55;;
7338;SDS011;33747;49.524;8.390;2023-02-02T03:44:58;17.75;;;3.35;;
7338;SDS011;33747;49.524;8.390;2023-02-02T03:47:23;23.55;;;3.40;;
7338;SDS011;33747;49.524;8.390;2023-02-02T03:49:52;15.45;;;2.90;;
7338;SDS011;33747;49.524;8.390;2023-02-02T03:52:17;11.93;;;2.75;;
7338;SDS011;33747;49.524;8.390;2023-02-02T03:54:43;11.43;;;2.25;;
7338;SDS011;33747;49.524;8.390;2023-02-02T03:57:08;12.57;;;3.63;;
7338;SDS011;33747;49.524;8.390;2023-02-02T03:59:33;10.85;;;2.80;;
7338;SDS011;33747;49.524;8.390;2023-02-02T04:01:59;16.33;;;3.35;;
7338;SDS011;33747;49.524;8.390;2023-02-02T04:04:24;12.85;;;2.97;;
7338;SDS011;33747;49.524;8.390;2023-02-02T04:06:49;22.98;;;3.20;;
7338;SDS011;33747;49.524;8.390;2023-02-02T04:09:15;19.00;;;3.00;;
7338;SDS011;33747;49.524;8.390;2023-02-02T04:11:40;12.00;;;2.47;;
7338;SDS011;33747;49.524;8.390;2023-02-02T04:14:06;13.65;;;2.83;;
7338;SDS011;33747;49.524;8.390;2023-02-02T04:16:31;11.43;;;2.00;;
7338;SDS011;33747;49.524;8.390;2023-02-02T04:18:59;17.48;;;2.58;;
7338;SDS011;33747;49.524;8.390;2023-02-02T04:21:25;14.00;;;3.13;;
7338;SDS011;33747;49.524;8.390;2023-02-02T04:23:51;10.60;;;2.95;;
7338;SDS011;33747;49.524;8.390;2023-02-02T04:26:16;15.82;;;3.33;;
7338;SDS011;33747;49.524;8.390;2023-02-02T04:28:41;13.68;;;3.08;;
7338;SDS011;33747;49.524;8.390;2023-02-02T04:31:07;10.65;;;2.67;;
7338;SDS011;33747;49.524;8.390;2023-02-02T04:33:32;10.82;;;2.78;;
7338;SDS011;33747;49.524;8.390;2023-02-02T04:35:58;14.55;;;3.30;;
7338;SDS011;33747;49.524;8.390;2023-02-02T04:38:23;9.60;;;2.65;;
7338;SDS011;33747;49.524;8.390;2023-02-02T04:40:48;14.45;;;3.17;;
7338;SDS011;33747;49.524;8.390;2023-02-02T04:43:14;10.13;;;2.50;;
7338;SDS011;33747;49.524;8.390;2023-02-02T04:45:39;6.10;;;2.33;;
7338;SDS011;33747;49.524;8.390;2023-02-02T04:48:06;9.15;;;2.28;;
7338;SDS011;33747;49.524;8.390;2023-02-02T04:50:31;11.10;;;3.03;;
7338;SDS011;33747;49.524;8.390;2023-02-02T04:52:57;10.13;;;2.80;;
7338;SDS011;33747;49.524;8.390;2023-02-02T04:55:22;16.52;;;3.10;;
7338;SDS011;33747;49.524;8.390;2023-02-02T04:57:48;13.65;;;2.78;;
7338;SDS011;33747;49.524;8.390;2023-02-02T05:00:13;13.90;;;2.65;;
7338;SDS011;33747;49.524;8.390;2023-02-02T05:02:39;14.43;;;3.13;;
7338;SDS011;33747;49.524;8.390;2023-02-02T05:05:05;6.43;;;2.20;;
7338;SDS011;33747;49.524;8.390;2023-02-02T05:07:33;11.88;;;2.65;;
7338;SDS011;33747;49.524;8.390;2023-02-02T05:09:58;9.77;;;2.63;;
7338;SDS011;33747;49.524;8.390;2023-02-02T05:12:24;14.18;;;2.90;;
7338;SDS011;33747;49.524;8.390;2023-02-02T05:14:49;8.80;;;2.13;;
7338;SDS011;33747;49.524;8.390;2023-02-02T05:17:14;10.52;;;2.63;;
7338;SDS011;33747;49.524;8.390;2023-02-02T05:19:40;10.23;;;3.05;;
7338;SDS011;33747;49.524;8.390;2023-02-02T05:22:06;12.25;;;2.83;;
7338;SDS011;33747;49.524;8.390;2023-02-02T05:24:31;19.23;;;4.80;;
7338;SDS011;33747;49.524;8.390;2023-02-02T05:26:57;13.70;;;3.20;;
7338;SDS011;33747;49.524;8.390;2023-02-02T05:29:24;9.52;;;2.60;;
7338;SDS011;33747;49.524;8.390;2023-02-02T05:31:50;10.27;;;2.33;;
7338;SDS011;33747;49.524;8.390;2023-02-02T05:34:16;11.50;;;2.42;;
7338;SDS011;33747;49.524;8.390;2023-02-02T05:36:41;10.88;;;2.53;;
7338;SDS011;33747;49.524;8.390;2023-02-02T05:39:08;10.07;;;2.83;;
7338;SDS011;33747;49.524;8.390;2023-02-02T05:41:33;12.18;;;2.00;;
7338;SDS011;33747;49.524;8.390;2023-02-02T05:43:59;14.30;;;2.70;;
7338;SDS011;33747;49.524;8.390;2023-02-02T05:46:24;9.25;;;2.15;;
7338;SDS011;33747;49.524;8.390;2023-02-02T05:48:50;6.10;;;2.15;;
7338;SDS011;33747;49.524;8.390;2023-02-02T05:51:17;13.93;;;2.75;;
7338;SDS011;33747;49.524;8.390;2023-02-02T05:53:44;11.68;;;2.22;;
7338;SDS011;33747;49.524;8.390;2023-02-02T05:56:10;7.75;;;2.13;;
7338;SDS011;33747;49.524;8.390;2023-02-02T05:58:36;6.35;;;2.83;;
7338;SDS011;33747;49.524;8.390;2023-02-02T06:01:01;13.73;;;2.50;;
7338;SDS011;33747;49.524;8.390;2023-02-02T06:03:26;10.05;;;2.13;;
7338;SDS011;33747;49.524;8.390;2023-02-02T06:05:52;12.48;;;2.25;;
7338;SDS011;33747;49.524;8.390;2023-02-02T06:08:17;14.80;;;2.33;;
7338;SDS011;33747;49.524;8.390;2023-02-02T06:10:43;7.93;;;2.30;;
7338;SDS011;33747;49.524;8.390;2023-02-02T06:13:08;9.73;;;2.50;;
7338;SDS011;33747;49.524;8.390;2023-02-02T06:15:34;9.77;;;2.28;;
7338;SDS011;33747;49.524;8.390;2023-02-02T06:18:00;11.45;;;2.13;;
7338;SDS011;33747;49.524;8.390;2023-02-02T06:20:25;11.77;;;2.67;;
7338;SDS011;33747;49.524;8.390;2023-02-02T06:22:51;16.67;;;2.90;;
7338;SDS011;33747;49.524;8.390;2023-02-02T06:25:16;8.15;;;2.83;;
7338;SDS011;33747;49.524;8.390;2023-02-02T06:27:42;9.00;;;2.65;;
7338;SDS011;33747;49.524;8.390;2023-02-02T06:30:10;12.68;;;2.60;;
7338;SDS011;33747;49.524;8.390;2023-02-02T06:32:36;12.27;;;2.88;;
7338;SDS011;33747;49.524;8.390;2023-02-02T06:35:02;10.80;;;2.30;;
7338;SDS011;33747;49.524;8.390;2023-02-02T06:37:28;11.55;;;2.50;;
7338;SDS011;33747;49.524;8.390;2023-02-02T06:39:54;10.80;;;2.97;;
7338;SDS011;33747;49.524;8.390;2023-02-02T06:42:19;11.23;;;2.65;;
7338;SDS011;33747;49.524;8.390;2023-02-02T06:44:44;11.00;;;2.80;;
7338;SDS011;33747;49.524;8.390;2023-02-02T06:47:10;10.45;;;3.05;;
7338;SDS011;33747;49.524;8.390;2023-02-02T06:49:35;10.10;;;2.88;;
7338;SDS011;33747;49.524;8.390;2023-02-02T06:52:00;11.27;;;2.25;;
7338;SDS011;33747;49.524;8.390;2023-02-02T06:54:26;5.15;;;2.10;;
7338;SDS011;33747;49.524;8.390;2023-02-02T06:56:51;11.35;;;2.72;;
7338;SDS011;33747;49.524;8.390;2023-02-02T06:59:17;9.13;;;2.40;;
7338;SDS011;33747;49.524;8.390;2023-02-02T07:01:44;12.57;;;3.40;;
7338;SDS011;33747;49.524;8.390;2023-02-02T07:04:09;7.28;;;2.05;;
7338;SDS011;33747;49.524;8.390;2023-02-02T07:06:35;8.30;;;2.47;;
7338;SDS011;33747;49.524;8.390;2023-02-02T07:09:00;9.25;;;2.50;;
7338;SDS011;33747;49.524;8.390;2023-02-02T07:11:26;18.17;;;3.10;;
7338;SDS011;33747;49.524;8.390;2023-02-02T07:13:51;9.27;;;1.95;;
7338;SDS011;33747;49.524;8.390;2023-02-02T07:16:17;11.05;;;3.28;;
7338;SDS011;33747;49.524;8.390;2023-02-02T07:18:42;15.95;;;2.72;;
7338;SDS011;33747;49.524;8.390;2023-02-02T07:21:09;13.43;;;3.70;;
7338;SDS011;33747;49.524;8.390;2023-02-02T07:23:40;19.92;;;6.18;;
7338;SDS011;33747;49.524;8.390;2023-02-02T07:26:07;20.05;;;4.78;;
7338;SDS011;33747;49.524;8.390;2023-02-02T07:28:33;12.13;;;4.13;;
7338;SDS011;33747;49.524;8.390;2023-02-02T07:30:58;17.00;;;3.72;;
7338;SDS011;33747;49.524;8.390;2023-02-02T07:33:24;15.38;;;4.43;;
7338;SDS011;33747;49.524;8.390;2023-02-02T07:35:49;18.58;;;4.70;;
7338;SDS011;33747;49.524;8.390;2023-02-02T07:38:15;13.90;;;3.72;;
7338;SDS011;33747;49.524;8.390;2023-02-02T07:40:40;10.13;;;3.80;;
7338;SDS011;33747;49.524;8.390;2023-02-02T07:43:06;12.52;;;3.08;;
7338;SDS011;33747;49.524;8.390;2023-02-02T07:45:31;12.38;;;2.95;;
7338;SDS011;33747;49.524;8.390;2023-02-02T07:47:57;9.45;;;3.20;;
7338;SDS011;33747;49.524;8.390;2023-02-02T07:50:23;10.77;;;3.35;;
7338;SDS011;33747;49.524;8.390;2023-02-02T07:52:49;14.57;;;2.80;;
7338;SDS011;33747;49.524;8.390;2023-02-02T07:55:15;10.13;;;2.17;;
7338;SDS011;33747;49.524;8.390;2023-02-02T07:57:40;12.20;;;2.97;;
7338;SDS011;33747;49.524;8.390;2023-02-02T08:00:06;11.98;;;2.70;;
7338;SDS011;33747;49.524;8.390;2023-02-02T08:02:31;13.48;;;2.70;;
7338;SDS011;33747;49.524;8.390;2023-02-02T08:04:56;10.07;;;2.40;;
7338;SDS011;33747;49.524;8.390;2023-02-02T08:07:22;16.50;;;2.80;;
7338;SDS011;33747;49.524;8.390;2023-02-02T08:09:48;7.72;;;2.17;;
7338;SDS011;33747;49.524;8.390;2023-02-02T08:12:14;13.05;;;2.38;;
7338;SDS011;33747;49.524;8.390;2023-02-02T08:14:39;13.18;;;2.75;;
7338;SDS011;33747;49.524;8.390;2023-02-02T08:17:05;16.17;;;3.28;;
7338;SDS011;33747;49.524;8.390;2023-02-02T08:19:30;18.95;;;4.05;;
7338;SDS011;33747;49.524;8.390;2023-02-02T08:21:56;15.73;;;2.85;;
7338;SDS011;33747;49.524;8.390;2023-02-02T08:24:21;19.33;;;3.90;;
7338;SDS011;33747;49.524;8.390;2023-02-02T08:26:46;16.85;;;3.90;;
7338;SDS011;33747;49.524;8.390;2023-02-02T08:29:12;10.25;;;3.05;;
7338;SDS011;33747;49.524;8.390;2023-02-02T08:31:41;14.02;;;3.47;;
7338;SDS011;33747;49.524;8.390;2023-02-02T08:34:06;14.98;;;3.10;;
7338;SDS011;33747;49.524;8.390;2023-02-02T08:36:32;12.70;;;2.72;;
7338;SDS011;33747;49.524;8.390;2023-02-02T08:39:01;14.45;;;2.95;;
7338;SDS011;33747;49.524;8.390;2023-02-02T08:41:28;11.15;;;3.15;;
7338;SDS011;33747;49.524;8.390;2023-02-02T08:43:53;13.25;;;3.70;;
7338;SDS011;33747;49.524;8.390;2023-02-02T08:46:19;13.48;;;3.60;;
7338;SDS011;33747;49.524;8.390;2023-02-02T08:48:45;18.63;;;3.08;;
7338;SDS011;33747;49.524;8.390;2023-02-02T08:51:11;18.65;;;3.65;;
7338;SDS011;33747;49.524;8.390;2023-02-02T08:53:39;9.93;;;2.45;;
7338;SDS011;33747;49.524;8.390;2023-02-02T08:56:05;8.43;;;2.65;;
7338;SDS011;33747;49.524;8.390;2023-02-02T08:58:33;11.10;;;2.47;;
7338;SDS011;33747;49.524;8.390;2023-02-02T09:03:35;11.27;;;2.28;;
7338;SDS011;33747;49.524;8.390;2023-02-02T09:06:04;13.00;;;2.72;;
7338;SDS011;33747;49.524;8.390;2023-02-02T09:08:30;12.27;;;2.28;;
7338;SDS011;33747;49.524;8.390;2023-02-02T09:11:01;12.27;;;2.28;;
7338;SDS011;33747;49.524;8.390;2023-02-02T09:13:27;13.73;;;2.83;;
7338;SDS011;33747;49.524;8.390;2023-02-02T09:15:52;10.85;;;3.28;;
7338;SDS011;33747;49.524;8.390;2023-02-02T09:18:18;11.68;;;2.88;;
7338;SDS011;33747;49.524;8.390;2023-02-02T09:20:43;8.32;;;2.40;;
7338;SDS011;33747;49.524;8.390;2023-02-02T09:23:09;15.07;;;2.67;;
7338;SDS011;33747;49.524;8.390;2023-02-02T09:25:34;8.57;;;2.38;;
7338;SDS011;33747;49.524;8.390;2023-02-02T09:27:59;9.35;;;2.40;;
7338;SDS011;33747;49.524;8.390;2023-02-02T09:30:25;11.60;;;2.63;;
7338;SDS011;33747;49.524;8.390;2023-02-02T09:32:50;13.40;;;2.10;;
7338;SDS011;33747;49.524;8.390;2023-02-02T09:35:16;11.48;;;2.53;;
7338;SDS011;33747;49.524;8.390;2023-02-02T09:37:41;13.02;;;2.55;;
7338;SDS011;33747;49.524;8.390;2023-02-02T09:40:09;15.18;;;2.85;;
7338;SDS011;33747;49.524;8.390;2023-02-02T09:42:50;8.85;;;2.17;;
7338;SDS011;33747;49.524;8.390;2023-02-02T09:45:44;15.15;;;2.67;;
7338;SDS011;33747;49.524;8.390;2023-02-02T09:48:26;10.65;;;2.40;;
7338;SDS011;33747;49.524;8.390;2023-02-02T09:50:56;7.88;;;2.72;;
7338;SDS011;33747;49.524;8.390;2023-02-02T09:53:26;12.65;;;2.58;;
7338;SDS011;33747;49.524;8.390;2023-02-02T09:55:54;7.60;;;1.88;;
7338;SDS011;33747;49.524;8.390;2023-02-02T09:58:32;10.68;;;2.83;;
7338;SDS011;33747;49.524;8.390;2023-02-02T10:01:13;5.18;;;1.80;;
7338;SDS011;33747;49.524;8.390;2023-02-02T10:09:00;7.07;;;2.00;;
7338;SDS011;33747;49.524;8.390;2023-02-02T10:14:51;8.50;;;2.10;;
7338;SDS011;33747;49.524;8.390;2023-02-02T10:19:48;11.20;;;2.40;;
7338;SDS011;33747;49.524;8.390;2023-02-02T10:22:18;10.90;;;2.38;;
7338;SDS011;33747;49.524;8.390;2023-02-02T10:24:45;11.65;;;2.35;;
7338;SDS011;33747;49.524;8.390;2023-02-02T10:27:13;6.70;;;2.05;;
7338;SDS011;33747;49.524;8.390;2023-02-02T10:29:55;14.40;;;2.53;;
7338;SDS011;33747;49.524;8.390;2023-02-02T10:32:24;9.50;;;2.45;;
7338;SDS011;33747;49.524;8.390;2023-02-02T10:40:54;6.28;;;1.77;;
7338;SDS011;33747;49.524;8.390;2023-02-02T10:46:24;11.98;;;2.47;;
7338;SDS011;33747;49.524;8.390;2023-02-02T10:48:58;7.32;;;1.95;;
7338;SDS011;33747;49.524;8.390;2023-02-02T10:51:33;17.40;;;3.17;;
7338;SDS011;33747;49.524;8.390;2023-02-02T10:53:59;9.13;;;2.63;;
7338;SDS011;33747;49.524;8.390;2023-02-02T10:56:36;10.13;;;2.55;;
7338;SDS011;33747;49.524;8.390;2023-02-02T11:01:55;13.13;;;2.38;;
7338;SDS011;33747;49.524;8.390;2023-02-02T11:04:20;9.30;;;2.70;;
7338;SDS011;33747;49.524;8.390;2023-02-02T11:07:05;5.20;;;1.60;;
7338;SDS011;33747;49.524;8.390;2023-02-02T11:09:31;15.80;;;2.72;;
7338;SDS011;33747;49.524;8.390;2023-02-02T11:12:08;7.57;;;2.70;;
7338;SDS011;33747;49.524;8.390;2023-02-02T11:15:01;7.22;;;2.42;;
7338;SDS011;33747;49.524;8.390;2023-02-02T11:17:26;8.45;;;2.00;;
7338;SDS011;33747;49.524;8.390;2023-02-02T11:19:52;11.00;;;2.63;;
7338;SDS011;33747;49.524;8.390;2023-02-02T11:24:56;10.27;;;1.92;;
7338;SDS011;33747;49.524;8.390;2023-02-02T11:27:40;7.35;;;1.73;;
7338;SDS011;33747;49.524;8.390;2023-02-02T11:32:58;5.72;;;1.98;;
7338;SDS011;33747;49.524;8.390;2023-02-02T11:35:27;10.30;;;2.40;;
7338;SDS011;33747;49.524;8.390;2023-02-02T11:43:02;7.00;;;2.20;;
7338;SDS011;33747;49.524;8.390;2023-02-02T11:45:34;9.00;;;1.92;;
7338;SDS011;33747;49.524;8.390;2023-02-02T11:48:03;10.10;;;2.67;;
7338;SDS011;33747;49.524;8.390;2023-02-02T11:50:59;9.65;;;2.17;;
7338;SDS011;33747;49.524;8.390;2023-02-02T11:53:26;7.63;;;1.77;;
7338;SDS011;33747;49.524;8.390;2023-02-02T11:55:58;8.20;;;2.10;;
7338;SDS011;33747;49.524;8.390;2023-02-02T11:58:26;13.65;;;1.92;;
7338;SDS011;33747;49.524;8.390;2023-02-02T12:01:00;15.73;;;2.78;;
7338;SDS011;33747;49.524;8.390;2023-02-02T12:03:28;11.30;;;2.28;;
7338;SDS011;33747;49.524;8.390;2023-02-02T12:05:58;5.35;;;2.35;;
7338;SDS011;33747;49.524;8.390;2023-02-02T12:08:25;9.88;;;2.08;;
7338;SDS011;33747;49.524;8.390;2023-02-02T12:11:01;10.40;;;2.35;;
7338;SDS011;33747;49.524;8.390;2023-02-02T12:13:34;10.77;;;2.38;;
7338;SDS011;33747;49.524;8.390;2023-02-02T12:19:21;8.13;;;2.20;;
7338;SDS011;33747;49.524;8.390;2023-02-02T12:21:55;5.80;;;2.65;;
7338;SDS011;33747;49.524;8.390;2023-02-02T12:24:28;9.07;;;2.10;;
7338;SDS011;33747;49.524;8.390;2023-02-02T12:29:50;11.48;;;2.55;;
7338;SDS011;33747;49.524;8.390;2023-02-02T12:35:50;4.82;;;1.38;;
7338;SDS011;33747;49.524;8.390;2023-02-02T12:46:13;7.15;;;2.08;;
7338;SDS011;33747;49.524;8.390;2023-02-02T12:51:28;10.13;;;2.28;;
7338;SDS011;33747;49.524;8.390;2023-02-02T12:56:50;6.22;;;1.90;;
7338;SDS011;33747;49.524;8.390;2023-02-02T13:05:17;7.57;;;1.88;;
7338;SDS011;33747;49.524;8.390;2023-02-02T13:07:54;4.75;;;1.35;;
7338;SDS011;33747;49.524;8.390;2023-02-02T13:10:41;7.47;;;1.42;;
7338;SDS011;33747;49.524;8.390;2023-02-02T13:15:43;6.88;;;2.20;;
7338;SDS011;33747;49.524;8.390;2023-02-02T13:18:30;7.72;;;3.13;;
7338;SDS011;33747;49.524;8.390;2023-02-02T13:21:30;11.82;;;1.63;;
7338;SDS011;33747;49.524;8.390;2023-02-02T13:23:57;4.32;;;1.40;;
7338;SDS011;33747;49.524;8.390;2023-02-02T13:26:25;8.13;;;1.90;;
7338;SDS011;33747;49.524;8.390;2023-02-02T13:29:04;4.15;;;1.33;;
7338;SDS011;33747;49.524;8.390;2023-02-02T13:31:34;7.80;;;1.67;;
7338;SDS011;33747;49.524;8.390;2023-02-02T13:36:39;6.72;;;1.80;;
7338;SDS011;33747;49.524;8.390;2023-02-02T13:39:11;7.00;;;1.45;;
7338;SDS011;33747;49.524;8.390;2023-02-02T13:41:40;5.15;;;1.60;;
7338;SDS011;33747;49.524;8.390;2023-02-02T13:44:07;4.30;;;1.27;;
7338;SDS011;33747;49.524;8.390;2023-02-02T13:49:34;6.45;;;1.50;;
7338;SDS011;33747;49.524;8.390;2023-02-02T14:03:27;4.80;;;1.20;;
7338;SDS011;33747;49.524;8.390;2023-02-02T14:06:07;3.83;;;1.48;;
7338;SDS011;33747;49.524;8.390;2023-02-02T14:08:35;10.65;;;1.95;;
7338;SDS011;33747;49.524;8.390;2023-02-02T14:11:01;7.03;;;1.50;;
7338;SDS011;33747;49.524;8.390;2023-02-02T14:13:42;9.07;;;1.90;;
7338;SDS011;33747;49.524;8.390;2023-02-02T14:18:55;5.13;;;1.55;;
7338;SDS011;33747;49.524;8.390;2023-02-02T14:23:55;7.15;;;2.08;;
7338;SDS011;33747;49.524;8.390;2023-02-02T14:31:58;10.60;;;2.45;;
7338;SDS011;33747;49.524;8.390;2023-02-02T14:34:40;9.82;;;2.45;;
7338;SDS011;33747;49.524;8.390;2023-02-02T14:45:22;11.00;;;2.10;;
7338;SDS011;33747;49.524;8.390;2023-02-02T14:58:42;6.22;;;1.98;;
7338;SDS011;33747;49.524;8.390;2023-02-02T15:06:40;5.70;;;1.90;;
7338;SDS011;33747;49.524;8.390;2023-02-02T15:14:47;7.93;;;1.52;;
7338;SDS011;33747;49.524;8.390;2023-02-02T15:28:17;8.55;;;1.90;;
7338;SDS011;33747;49.524;8.390;2023-02-02T15:31:11;7.22;;;2.50;;
7338;SDS011;33747;49.524;8.390;2023-02-02T15:33:55;9.55;;;1.92;;
7338;SDS011;33747;49.524;8.390;2023-02-02T15:36:24;7.07;;;1.88;;
7338;SDS011;33747;49.524;8.390;2023-02-02T15:38:52;7.63;;;1.90;;
7338;SDS011;33747;49.524;8.390;2023-02-02T15:41:24;4.55;;;2.13;;
7338;SDS011;33747;49.524;8.390;2023-02-02T15:44:00;10.10;;;2.13;;
7338;SDS011;33747;49.524;8.390;2023-02-02T15:46:27;11.55;;;2.85;;
7338;SDS011;33747;49.524;8.390;2023-02-02T15:51:46;14.93;;;2.13;;
7338;SDS011;33747;49.524;8.390;2023-02-02T15:54:24;10.40;;;2.38;;
7338;SDS011;33747;49.524;8.390;2023-02-02T15:56:52;8.95;;;2.25;;
7338;SDS011;33747;49.524;8.390;2023-02-02T15:59:20;9.65;;;2.72;;
7338;SDS011;33747;49.524;8.390;2023-02-02T16:01:51;11.50;;;1.73;;
7338;SDS011;33747;49.524;8.390;2023-02-02T16:04:34;11.18;;;2.40;;
7338;SDS011;33747;49.524;8.390;2023-02-02T16:07:02;6.43;;;1.95;;
7338;SDS011;33747;49.524;8.390;2023-02-02T16:09:31;11.15;;;2.65;;
7338;SDS011;33747;49.524;8.390;2023-02-02T16:11:59;6.38;;;1.95;;
7338;SDS011;33747;49.524;8.390;2023-02-02T16:14:25;11.95;;;2.63;;
7338;SDS011;33747;49.524;8.390;2023-02-02T16:16:51;8.75;;;2.35;;
7338;SDS011;33747;49.524;8.390;2023-02-02T16:21:47;8.05;;;2.08;;
7338;SDS011;33747;49.524;8.390;2023-02-02T16:24:14;14.27;;;2.90;;
7338;SDS011;33747;49.524;8.390;2023-02-02T16:26:43;7.65;;;2.30;;
7338;SDS011;33747;49.524;8.390;2023-02-02T16:29:10;10.00;;;2.05;;
7338;SDS011;33747;49.524;8.390;2023-02-02T16:31:40;8.07;;;2.20;;
7338;SDS011;33747;49.524;8.390;2023-02-02T16:34:08;6.68;;;1.83;;
7338;SDS011;33747;49.524;8.390;2023-02-02T16:36:39;5.55;;;1.83;;
7338;SDS011;33747;49.524;8.390;2023-02-02T16:39:13;8.10;;;2.33;;
7338;SDS011;33747;49.524;8.390;2023-02-02T16:41:40;7.05;;;2.30;;
7338;SDS011;33747;49.524;8.390;2023-02-02T16:47:06;6.55;;;1.98;;
7338;SDS011;33747;49.524;8.390;2023-02-02T16:49:32;8.18;;;2.47;;
7338;SDS011;33747;49.524;8.390;2023-02-02T16:52:14;6.47;;;2.05;;
7338;SDS011;33747;49.524;8.390;2023-02-02T16:54:41;6.18;;;2.33;;
7338;SDS011;33747;49.524;8.390;2023-02-02T16:57:13;5.68;;;2.13;;
7338;SDS011;33747;49.524;8.390;2023-02-02T16:59:41;8.95;;;2.33;;
7338;SDS011;33747;49.524;8.390;2023-02-02T17:04:40;8.27;;;2.15;;
7338;SDS011;33747;49.524;8.390;2023-02-02T17:07:11;11.00;;;1.95;;
7338;SDS011;33747;49.524;8.390;2023-02-02T17:09:39;6.28;;;1.95;;
7338;SDS011;33747;49.524;8.390;2023-02-02T17:12:20;13.27;;;2.13;;
7338;SDS011;33747;49.524;8.390;2023-02-02T17:14:52;5.63;;;1.47;;
7338;SDS011;33747;49.524;8.390;2023-02-02T17:17:18;4.75;;;1.40;;
7338;SDS011;33747;49.524;8.390;2023-02-02T17:19:43;7.05;;;1.55;;
7338;SDS011;33747;49.524;8.390;2023-02-02T17:22:09;4.20;;;1.63;;
7338;SDS011;33747;49.524;8.390;2023-02-02T17:24:34;9.35;;;2.35;;
7338;SDS011;33747;49.524;8.390;2023-02-02T17:27:00;8.18;;;1.90;;
7338;SDS011;33747;49.524;8.390;2023-02-02T17:29:25;9.45;;;3.15;;
7338;SDS011;33747;49.524;8.390;2023-02-02T17:31:51;10.18;;;1.88;;
7338;SDS011;33747;49.524;8.390;2023-02-02T17:34:17;6.72;;;1.33;;
7338;SDS011;33747;49.524;8.390;2023-02-02T17:36:42;6.85;;;1.90;;
7338;SDS011;33747;49.524;8.390;2023-02-02T17:39:08;10.15;;;1.90;;
7338;SDS011;33747;49.524;8.390;2023-02-02T17:41:33;4.80;;;2.22;;
7338;SDS011;33747;49.524;8.390;2023-02-02T17:43:59;8.48;;;2.00;;
7338;SDS011;33747;49.524;8.390;2023-02-02T17:46:25;7.65;;;2.28;;
7338;SDS011;33747;49.524;8.390;2023-02-02T17:48:55;10.82;;;2.28;;
7338;SDS011;33747;49.524;8.390;2023-02-02T17:51:20;4.72;;;1.70;;
7338;SDS011;33747;49.524;8.390;2023-02-02T17:53:46;7.15;;;2.38;;
7338;SDS011;33747;49.524;8.390;2023-02-02T17:56:11;8.65;;;2.00;;
7338;SDS011;33747;49.524;8.390;2023-02-02T17:58:36;8.45;;;2.38;;